createdAt,value
2017-08-26T00:01:27.242Z,10.70
2017-08-26T00:03:55.861Z,10.23
2017-08-26T00:06:24.310Z,9.30
2017-08-26T00:08:52.671Z,9.20
2017-08-26T00:11:21.056Z,8.90
2017-08-26T00:13:49.536Z,9.20
2017-08-26T00:16:18.014Z,9.20
2017-08-26T00:18:46.589Z,9.40
2017-08-26T00:21:14.992Z,8.53
2017-08-26T00:23:43.554Z,8.20
2017-08-26T00:26:12.271Z,7.57
2017-08-26T00:28:40.750Z,7.90
2017-08-26T00:31:09.207Z,9.30
2017-08-26T00:33:38.070Z,8.17
2017-08-26T00:36:06.545Z,8.50
2017-08-26T00:38:34.919Z,8.70
2017-08-26T00:41:03.449Z,9.23
2017-08-26T00:43:31.816Z,8.20
2017-08-26T00:46:00.233Z,8.57
2017-08-26T00:48:28.607Z,7.90
2017-08-26T00:50:57.325Z,7.50
2017-08-26T00:53:25.811Z,7.57
2017-08-26T00:55:54.179Z,7.87
2017-08-26T00:58:22.542Z,9.43
2017-08-26T01:00:51.058Z,8.90
2017-08-26T01:03:19.492Z,10.17
2017-08-26T01:05:47.986Z,8.03
2017-08-26T01:08:16.398Z,9.27
2017-08-26T01:10:45.866Z,8.27
2017-08-26T01:13:14.349Z,8.33
2017-08-26T01:15:42.826Z,8.80
2017-08-26T01:18:11.471Z,10.90
2017-08-26T01:20:40.147Z,9.07
2017-08-26T01:23:08.766Z,10.13
2017-08-26T01:25:37.164Z,10.93
2017-08-26T01:28:05.502Z,7.20
2017-08-26T01:30:33.892Z,7.30
2017-08-26T01:33:02.284Z,7.30
2017-08-26T01:35:30.629Z,7.30
2017-08-26T01:37:58.998Z,8.20
2017-08-26T01:40:27.476Z,8.40
2017-08-26T01:42:56.223Z,7.60
2017-08-26T01:45:24.625Z,8.30
2017-08-26T01:47:53.118Z,7.93
2017-08-26T01:50:21.605Z,8.17
2017-08-26T01:52:50.084Z,7.30
2017-08-26T01:55:18.405Z,6.87
2017-08-26T01:57:46.835Z,7.50
2017-08-26T02:00:15.342Z,7.27
2017-08-26T02:02:43.961Z,7.10
2017-08-26T02:05:12.461Z,8.07
2017-08-26T02:07:40.964Z,6.97
2017-08-26T02:10:09.530Z,8.70
2017-08-26T02:12:38.034Z,6.70
2017-08-26T02:15:06.447Z,7.20
2017-08-26T02:17:34.920Z,6.20
2017-08-26T02:20:03.650Z,7.00
2017-08-26T02:22:32.045Z,7.23
2017-08-26T02:25:01.286Z,6.20
2017-08-26T02:27:29.818Z,7.20
2017-08-26T02:29:58.214Z,6.43
2017-08-26T02:32:26.544Z,7.47
2017-08-26T02:34:55.021Z,6.40
2017-08-26T02:37:23.354Z,7.90
2017-08-26T02:39:51.800Z,6.93
2017-08-26T02:42:20.192Z,7.93
2017-08-26T02:44:48.687Z,6.27
2017-08-26T02:47:17.400Z,6.60
2017-08-26T02:49:45.797Z,6.60
2017-08-26T02:52:14.172Z,6.60
2017-08-26T02:54:42.717Z,7.40
2017-08-26T02:57:11.122Z,6.97
2017-08-26T02:59:39.511Z,7.60
2017-08-26T03:02:07.961Z,7.40
2017-08-26T03:04:36.321Z,7.80
2017-08-26T03:07:04.797Z,7.77
2017-08-26T03:09:33.277Z,7.80
2017-08-26T03:12:01.625Z,6.97
2017-08-26T03:14:30.133Z,8.60
2017-08-26T03:16:58.511Z,6.43
2017-08-26T03:19:26.843Z,6.53
2017-08-26T03:21:55.257Z,6.97
2017-08-26T03:24:23.767Z,7.40
2017-08-26T03:26:52.167Z,6.63
2017-08-26T03:29:20.760Z,7.10
2017-08-26T03:31:49.220Z,7.33
2017-08-26T03:34:17.588Z,6.40
2017-08-26T03:36:45.985Z,7.37
2017-08-26T03:39:14.355Z,7.07
2017-08-26T03:41:42.796Z,7.70
2017-08-26T03:44:11.162Z,7.20
2017-08-26T03:46:39.750Z,7.13
2017-08-26T03:49:08.218Z,7.37
2017-08-26T03:51:36.615Z,7.67
2017-08-26T03:54:05.250Z,7.43
2017-08-26T03:56:33.697Z,6.87
2017-08-26T03:59:02.212Z,7.93
2017-08-26T04:01:30.686Z,7.50
2017-08-26T04:03:59.136Z,8.27
2017-08-26T04:06:27.657Z,6.33
2017-08-26T04:08:56.085Z,6.67
2017-08-26T04:11:24.948Z,8.40
2017-08-26T04:13:53.389Z,9.70
2017-08-26T04:16:22.109Z,8.60
2017-08-26T04:18:50.468Z,7.50
2017-08-26T04:21:19.098Z,8.10
2017-08-26T04:23:47.971Z,7.80
2017-08-26T04:26:16.428Z,7.20
2017-08-26T04:28:44.830Z,7.80
2017-08-26T04:31:13.386Z,6.70
2017-08-26T04:33:43.137Z,6.83
2017-08-26T04:36:11.666Z,8.17
2017-08-26T04:38:40.049Z,7.70
2017-08-26T04:41:08.455Z,6.93
2017-08-26T04:43:36.867Z,7.23
2017-08-26T04:46:05.390Z,8.70
2017-08-26T04:48:33.865Z,9.50
2017-08-26T04:51:02.281Z,7.57
2017-08-26T04:53:30.833Z,8.03
2017-08-26T04:55:59.203Z,7.97
2017-08-26T04:58:27.620Z,7.73
2017-08-26T05:00:56.242Z,8.40
2017-08-26T05:03:24.678Z,8.20
2017-08-26T05:05:53.101Z,8.43
2017-08-26T05:08:21.579Z,8.27
2017-08-26T05:10:49.937Z,8.50
2017-08-26T05:13:18.428Z,7.00
2017-08-26T05:15:47.287Z,7.70
2017-08-26T05:18:15.731Z,6.57
2017-08-26T05:20:44.347Z,6.90
2017-08-26T05:23:12.847Z,9.07
2017-08-26T05:25:41.299Z,6.83
2017-08-26T05:28:11.679Z,6.90
2017-08-26T05:30:40.138Z,7.57
2017-08-26T05:33:08.625Z,6.70
2017-08-26T05:35:37.007Z,5.50
2017-08-26T05:38:05.926Z,6.87
2017-08-26T05:40:34.281Z,6.93
2017-08-26T05:43:02.648Z,7.40
2017-08-26T05:45:31.065Z,7.00
2017-08-26T05:47:59.443Z,8.67
2017-08-26T05:50:27.837Z,7.70
2017-08-26T05:52:56.343Z,7.10
2017-08-26T05:55:24.799Z,7.33
2017-08-26T05:57:53.238Z,6.47
2017-08-26T06:00:21.842Z,6.50
2017-08-26T06:02:50.578Z,6.80
2017-08-26T06:05:20.066Z,6.87
2017-08-26T06:07:48.952Z,7.00
2017-08-26T06:10:17.703Z,6.33
2017-08-26T06:12:46.415Z,6.87
2017-08-26T06:15:14.948Z,7.00
2017-08-26T06:17:43.503Z,5.90
2017-08-26T06:20:12.075Z,6.60
2017-08-26T06:22:40.653Z,5.70
2017-08-26T06:25:09.361Z,7.30
2017-08-26T06:27:37.801Z,6.07
2017-08-26T06:30:06.284Z,6.57
2017-08-26T06:32:35.186Z,6.13
2017-08-26T06:35:03.870Z,6.13
2017-08-26T06:37:32.734Z,6.20
2017-08-26T06:40:01.237Z,6.00
2017-08-26T06:42:29.834Z,5.87
2017-08-26T06:44:58.257Z,6.50
2017-08-26T06:47:26.656Z,5.60
2017-08-26T06:49:55.434Z,7.13
2017-08-26T06:52:24.033Z,6.27
2017-08-26T06:54:52.666Z,5.53
2017-08-26T06:57:21.169Z,6.10
2017-08-26T06:59:49.985Z,5.50
2017-08-26T07:02:18.406Z,6.30
2017-08-26T07:04:50.790Z,6.30
2017-08-26T07:07:19.841Z,6.30
2017-08-26T07:09:48.169Z,5.50
2017-08-26T07:12:16.918Z,5.83
2017-08-26T07:14:45.457Z,6.17
2017-08-26T07:17:13.897Z,5.40
2017-08-26T07:19:42.472Z,6.27
2017-08-26T07:22:12.149Z,4.90
2017-08-26T07:24:40.817Z,5.00
2017-08-26T07:27:09.385Z,5.67
2017-08-26T07:29:38.286Z,5.70
2017-08-26T07:32:07.476Z,5.23
2017-08-26T07:34:36.136Z,6.90
2017-08-26T07:37:05.161Z,4.80
2017-08-26T07:39:33.797Z,5.57
2017-08-26T07:42:02.265Z,4.17
2017-08-26T07:44:30.923Z,4.60
2017-08-26T07:46:59.813Z,4.33
2017-08-26T07:49:28.785Z,4.57
2017-08-26T07:51:58.054Z,4.83
2017-08-26T07:54:27.355Z,4.67
2017-08-26T07:56:55.910Z,5.50
2017-08-26T07:59:24.489Z,4.82
2017-08-26T08:01:52.927Z,4.57
2017-08-26T08:04:21.363Z,5.10
2017-08-26T08:06:50.098Z,5.23
2017-08-26T08:09:18.780Z,5.30
2017-08-26T08:11:47.745Z,5.07
2017-08-26T08:14:16.224Z,4.70
2017-08-26T08:16:44.757Z,5.40
2017-08-26T08:19:13.577Z,5.50
2017-08-26T08:21:41.958Z,4.90
2017-08-26T08:24:10.517Z,5.50
2017-08-26T08:26:39.802Z,5.30
2017-08-26T08:29:08.607Z,5.33
2017-08-26T08:31:37.195Z,5.03
2017-08-26T08:34:05.564Z,5.70
2017-08-26T08:36:34.251Z,5.90
2017-08-26T08:39:02.683Z,4.40
2017-08-26T08:41:31.691Z,5.50
2017-08-26T08:44:00.269Z,4.97
2017-08-26T08:46:28.677Z,5.40
2017-08-26T08:48:57.241Z,5.00
2017-08-26T08:51:25.691Z,6.33
2017-08-26T08:53:54.077Z,4.70
2017-08-26T08:56:22.485Z,5.47
2017-08-26T08:58:51.253Z,5.07
2017-08-26T09:01:19.658Z,5.03
2017-08-26T09:03:51.943Z,5.50
2017-08-26T09:06:20.455Z,5.10
2017-08-26T09:08:48.802Z,5.43
2017-08-26T09:11:17.630Z,4.70
2017-08-26T09:13:46.123Z,5.40
2017-08-26T09:16:14.573Z,6.10
2017-08-26T09:18:43.126Z,4.33
2017-08-26T09:21:12.140Z,5.50
2017-08-26T09:23:40.613Z,5.07
2017-08-26T09:26:09.332Z,5.10
2017-08-26T09:28:37.976Z,5.00
2017-08-26T09:31:06.361Z,5.60
2017-08-26T09:33:34.737Z,4.97
2017-08-26T09:36:03.185Z,4.80
2017-08-26T09:38:31.736Z,4.77
2017-08-26T09:41:01.313Z,5.03
2017-08-26T09:43:30.211Z,5.30
2017-08-26T09:45:58.572Z,5.20
2017-08-26T09:48:27.017Z,4.50
2017-08-26T09:50:55.360Z,5.20
2017-08-26T09:53:24.485Z,5.00
2017-08-26T09:55:52.968Z,3.83
2017-08-26T09:58:21.444Z,4.00
2017-08-26T10:00:50.249Z,4.00
2017-08-26T10:03:18.758Z,4.40
2017-08-26T10:05:48.124Z,3.90
2017-08-26T10:08:16.543Z,4.20
2017-08-26T10:10:45.055Z,4.33
2017-08-26T10:13:13.472Z,4.33
2017-08-26T10:15:41.909Z,3.50
2017-08-26T10:18:10.245Z,4.60
2017-08-26T10:20:38.672Z,4.40
2017-08-26T10:23:07.260Z,4.53
2017-08-26T10:25:35.680Z,4.80
2017-08-26T10:28:04.026Z,4.37
2017-08-26T10:30:32.349Z,5.00
2017-08-26T10:33:00.838Z,4.97
2017-08-26T10:35:29.333Z,4.50
2017-08-26T10:37:57.673Z,4.00
2017-08-26T10:40:26.054Z,4.00
2017-08-26T10:42:54.761Z,3.87
2017-08-26T10:45:23.431Z,4.10
2017-08-26T10:47:51.817Z,4.30
2017-08-26T10:50:20.404Z,4.50
2017-08-26T10:52:48.842Z,3.90
2017-08-26T10:55:22.954Z,3.90
2017-08-26T10:57:51.343Z,3.70
2017-08-26T11:00:19.958Z,4.00
2017-08-26T11:02:48.493Z,3.77
2017-08-26T11:05:16.944Z,3.90
2017-08-26T11:07:45.324Z,3.90
2017-08-26T11:10:14.684Z,3.90
2017-08-26T11:12:43.040Z,4.17
2017-08-26T11:15:11.851Z,3.67
2017-08-26T11:17:40.364Z,4.40
2017-08-26T11:20:08.752Z,3.70
2017-08-26T11:22:37.169Z,3.93
2017-08-26T11:25:05.792Z,4.40
2017-08-26T11:27:34.404Z,4.60
2017-08-26T11:30:02.724Z,4.83
2017-08-26T11:32:31.038Z,3.77
2017-08-26T11:34:59.388Z,4.20
2017-08-26T11:37:27.973Z,4.90
2017-08-26T11:39:56.272Z,4.00
2017-08-26T11:42:24.768Z,4.60
2017-08-26T11:44:53.069Z,4.10
2017-08-26T11:47:21.428Z,3.50
2017-08-26T11:49:49.753Z,3.70
2017-08-26T11:52:18.077Z,3.53
2017-08-26T11:54:46.848Z,4.13
2017-08-26T11:57:15.324Z,4.50
2017-08-26T11:59:43.688Z,3.73
2017-08-26T12:02:12.045Z,3.83
2017-08-26T12:04:40.412Z,3.57
2017-08-26T12:07:08.830Z,3.63
2017-08-26T12:09:37.316Z,3.97
2017-08-26T12:12:05.746Z,4.13
2017-08-26T12:14:34.228Z,3.10
2017-08-26T12:17:02.846Z,3.47
2017-08-26T12:19:31.160Z,3.50
2017-08-26T12:21:59.581Z,4.10
2017-08-26T12:24:27.972Z,4.00
2017-08-26T12:26:56.441Z,3.40
2017-08-26T12:29:24.755Z,3.83
2017-08-26T12:31:53.711Z,3.50
2017-08-26T12:34:22.031Z,3.00
2017-08-26T12:36:50.827Z,4.07
2017-08-26T12:39:19.236Z,4.10
2017-08-26T12:41:47.581Z,3.50
2017-08-26T12:44:16.740Z,4.00
2017-08-26T12:46:45.231Z,4.73
2017-08-26T12:49:14.732Z,4.27
2017-08-26T12:51:43.129Z,3.60
2017-08-26T12:54:11.762Z,4.90
2017-08-26T12:56:40.135Z,4.17
2017-08-26T12:59:08.647Z,3.47
2017-08-26T13:01:37.208Z,3.70
2017-08-26T13:04:05.632Z,4.97
2017-08-26T13:06:33.936Z,3.83
2017-08-26T13:09:02.313Z,3.70
2017-08-26T13:11:30.625Z,4.10
2017-08-26T13:13:58.971Z,3.87
2017-08-26T13:16:27.982Z,4.40
2017-08-26T13:18:56.286Z,4.40
2017-08-26T13:21:24.705Z,3.80
2017-08-26T13:23:53.083Z,3.97
2017-08-26T13:26:21.806Z,3.50
2017-08-26T13:28:50.160Z,3.90
2017-08-26T13:31:18.767Z,3.80
2017-08-26T13:33:47.120Z,4.20
2017-08-26T13:36:15.470Z,3.73
2017-08-26T13:38:44.250Z,4.30
2017-08-26T13:41:12.821Z,3.70
2017-08-26T13:43:41.135Z,4.20
2017-08-26T13:46:09.461Z,3.70
2017-08-26T13:48:38.840Z,3.30
2017-08-26T13:51:07.237Z,3.63
2017-08-26T13:53:35.664Z,3.90
2017-08-26T13:56:03.980Z,3.73
2017-08-26T13:58:33.349Z,4.03
2017-08-26T14:01:01.697Z,4.13
2017-08-26T14:03:30.205Z,3.53
2017-08-26T14:05:58.525Z,4.10
2017-08-26T14:08:27.130Z,4.80
2017-08-26T14:10:55.702Z,4.80
2017-08-26T14:13:24.081Z,4.37
2017-08-26T14:15:52.447Z,3.87
2017-08-26T14:18:20.869Z,3.70
2017-08-26T14:20:50.149Z,4.37
2017-08-26T14:23:18.708Z,4.00
2017-08-26T14:25:47.019Z,3.57
2017-08-26T14:28:15.442Z,3.90
2017-08-26T14:30:43.801Z,3.60
2017-08-26T14:33:12.876Z,4.00
2017-08-26T14:35:41.366Z,4.10
2017-08-26T14:38:09.928Z,3.90
2017-08-26T14:40:38.384Z,3.53
2017-08-26T14:43:07.203Z,3.80
2017-08-26T14:45:36.301Z,3.77
2017-08-26T14:48:04.639Z,4.23
2017-08-26T14:50:33.324Z,4.10
2017-08-26T14:53:01.699Z,3.80
2017-08-26T14:55:30.182Z,5.10
2017-08-26T14:57:58.857Z,3.63
2017-08-26T15:00:27.256Z,5.43
2017-08-26T15:02:55.674Z,4.30
2017-08-26T15:05:24.051Z,4.30
2017-08-26T15:07:52.393Z,5.57
2017-08-26T15:10:20.715Z,5.03
2017-08-26T15:12:49.104Z,4.73
2017-08-26T15:15:17.411Z,4.67
2017-08-26T15:17:45.982Z,4.50
2017-08-26T15:20:14.333Z,4.13
2017-08-26T15:22:42.704Z,4.90
2017-08-26T15:25:11.326Z,3.93
2017-08-26T15:27:39.610Z,4.40
2017-08-26T15:30:08.141Z,4.83
2017-08-26T15:32:36.532Z,5.37
2017-08-26T15:35:05.300Z,4.83
2017-08-26T15:37:33.668Z,4.00
2017-08-26T15:40:02.020Z,4.47
2017-08-26T15:42:30.360Z,5.20
2017-08-26T15:44:58.952Z,3.90
2017-08-26T15:47:28.076Z,4.10
2017-08-26T15:49:56.392Z,5.17
2017-08-26T15:52:24.727Z,3.93
2017-08-26T15:54:53.212Z,4.80
2017-08-26T15:57:21.778Z,4.50
2017-08-26T15:59:50.947Z,5.17
2017-08-26T16:02:19.402Z,4.60
2017-08-26T16:04:47.726Z,5.00
2017-08-26T16:07:16.146Z,5.17
2017-08-26T16:09:44.562Z,4.83
2017-08-26T16:12:12.964Z,4.90
2017-08-26T16:14:41.289Z,4.47
2017-08-26T16:17:09.614Z,5.93
2017-08-26T16:19:38.178Z,5.37
2017-08-26T16:22:06.824Z,4.90
2017-08-26T16:24:35.256Z,5.73
2017-08-26T16:27:03.588Z,4.93
2017-08-26T16:29:32.150Z,5.40
2017-08-26T16:32:00.564Z,5.10
2017-08-26T16:34:28.977Z,5.00
2017-08-26T16:36:57.588Z,5.37
2017-08-26T16:39:26.868Z,5.10
2017-08-26T16:41:56.556Z,5.20
2017-08-26T16:44:25.032Z,4.63
2017-08-26T16:46:53.457Z,5.17
2017-08-26T16:49:21.755Z,4.90
2017-08-26T16:51:50.887Z,4.50
2017-08-26T16:54:19.205Z,4.43
2017-08-26T16:56:48.560Z,4.43
2017-08-26T16:59:17.167Z,4.60
2017-08-26T17:01:45.736Z,4.57
2017-08-26T17:04:14.603Z,5.07
2017-08-26T17:06:42.956Z,3.97
2017-08-26T17:09:12.099Z,4.47
2017-08-26T17:11:41.389Z,5.27
2017-08-26T17:14:12.583Z,4.70
2017-08-26T17:16:41.445Z,4.47
2017-08-26T17:19:11.231Z,4.17
2017-08-26T17:21:40.553Z,4.83
2017-08-26T17:24:09.944Z,5.00
2017-08-26T17:26:40.663Z,4.50
2017-08-26T17:29:09.920Z,4.70
2017-08-26T17:31:39.658Z,4.93
2017-08-26T17:34:11.092Z,5.20
2017-08-26T17:36:39.831Z,5.30
2017-08-26T17:39:09.136Z,5.13
2017-08-26T17:41:38.881Z,4.80
2017-08-26T17:44:08.296Z,5.30
2017-08-26T17:46:52.232Z,5.20
2017-08-26T17:49:31.099Z,6.47
2017-08-26T17:52:00.109Z,5.10
2017-08-26T17:54:31.070Z,5.40
2017-08-26T17:57:00.829Z,5.07
2017-08-26T17:59:30.021Z,5.73
2017-08-26T18:02:00.658Z,5.90
2017-08-26T18:04:29.925Z,6.13
2017-08-26T18:06:59.560Z,6.10
2017-08-26T18:09:28.110Z,5.67
2017-08-26T18:11:57.386Z,5.90
2017-08-26T18:14:27.459Z,6.20
2017-08-26T18:16:56.542Z,6.23
2017-08-26T18:19:27.696Z,6.30
2017-08-26T18:21:56.076Z,5.57
2017-08-26T18:24:24.368Z,6.73
2017-08-26T18:26:52.951Z,6.70
2017-08-26T18:29:21.629Z,6.77
2017-08-26T18:31:50.108Z,6.93
2017-08-26T18:34:18.524Z,8.00
2017-08-26T18:36:47.709Z,6.70
2017-08-26T18:39:16.140Z,6.90
2017-08-26T18:41:44.829Z,6.80
2017-08-26T18:44:13.283Z,9.87
2017-08-26T18:46:41.657Z,9.50
2017-08-26T18:49:09.973Z,7.47
2017-08-26T18:51:38.568Z,8.40
2017-08-26T18:54:07.208Z,7.20
2017-08-26T18:56:35.559Z,6.40
2017-08-26T18:59:05.291Z,7.87
2017-08-26T19:01:33.910Z,8.20
2017-08-26T19:04:02.213Z,8.00
2017-08-26T19:06:30.537Z,7.90
2017-08-26T19:08:59.164Z,6.90
2017-08-26T19:11:27.849Z,8.63
2017-08-26T19:13:56.210Z,7.80
2017-08-26T19:16:24.859Z,7.70
2017-08-26T19:18:54.436Z,7.00
2017-08-26T19:21:22.786Z,7.60
2017-08-26T19:23:51.568Z,7.90
2017-08-26T19:26:19.876Z,8.87
2017-08-26T19:28:48.885Z,8.10
2017-08-26T19:31:17.243Z,7.57
2017-08-26T19:33:46.789Z,7.20
2017-08-26T19:36:15.360Z,8.03
2017-08-26T19:38:46.152Z,8.83
2017-08-26T19:41:15.294Z,7.73
2017-08-26T19:43:44.885Z,8.10
2017-08-26T19:46:13.652Z,7.67
2017-08-26T19:48:42.596Z,8.93
2017-08-26T19:51:11.853Z,7.43
2017-08-26T19:53:40.447Z,7.90
2017-08-26T19:56:10.038Z,10.10
2017-08-26T19:58:39.130Z,10.00
2017-08-26T20:01:07.902Z,8.10
2017-08-26T20:03:36.312Z,9.10
2017-08-26T20:06:05.144Z,9.40
2017-08-26T20:08:33.532Z,8.53
2017-08-26T20:11:02.563Z,10.13
2017-08-26T20:13:32.374Z,9.50
2017-08-26T20:16:01.769Z,10.80
2017-08-26T20:18:31.065Z,11.30
2017-08-26T20:20:59.400Z,10.87
2017-08-26T20:23:33.686Z,10.30
2017-08-26T20:26:02.137Z,9.60
2017-08-26T20:28:33.056Z,10.67
2017-08-26T20:31:01.993Z,8.50
2017-08-26T20:33:30.839Z,7.83
2017-08-26T20:36:00.655Z,8.97
2017-08-26T20:38:31.969Z,8.07
2017-08-26T20:41:00.685Z,7.60
2017-08-26T20:43:31.754Z,8.50
2017-08-26T20:46:03.984Z,9.20
2017-08-26T20:48:32.420Z,9.20
2017-08-26T20:51:02.396Z,9.47
2017-08-26T20:53:31.816Z,9.10
2017-08-26T20:56:01.571Z,9.13
2017-08-26T20:58:30.189Z,8.33
2017-08-26T21:00:59.217Z,9.10
2017-08-26T21:03:28.390Z,8.30
2017-08-26T21:05:56.876Z,7.90
2017-08-26T21:08:27.466Z,8.40
2017-08-26T21:10:57.397Z,8.47
2017-08-26T21:13:27.601Z,8.00
2017-08-26T21:15:56.137Z,8.87
2017-08-26T21:18:25.952Z,7.27
2017-08-26T21:21:02.996Z,9.00
2017-08-26T21:23:47.893Z,8.30
2017-08-26T21:26:23.279Z,8.77
2017-08-26T21:28:57.457Z,7.17
2017-08-26T21:31:31.709Z,7.27
2017-08-26T21:34:01.724Z,8.27
2017-08-26T21:36:34.976Z,7.37
2017-08-26T21:39:12.104Z,7.13
2017-08-26T21:41:46.276Z,7.37
2017-08-26T21:44:16.861Z,7.13
2017-08-26T21:46:52.135Z,7.30
2017-08-26T21:49:20.955Z,6.70
2017-08-26T21:51:51.959Z,7.27
2017-08-26T21:54:24.145Z,6.53
2017-08-26T21:56:53.425Z,5.90
2017-08-26T21:59:23.456Z,6.00
2017-08-26T22:01:52.567Z,5.70
2017-08-26T22:04:21.289Z,5.87
2017-08-26T22:06:50.846Z,5.90
2017-08-26T22:09:25.503Z,6.23
2017-08-26T22:11:56.758Z,6.70
2017-08-26T22:14:25.795Z,5.03
2017-08-26T22:16:54.180Z,5.67
2017-08-26T22:19:22.554Z,6.13
2017-08-26T22:21:50.952Z,4.60
2017-08-26T22:24:19.625Z,6.40
2017-08-26T22:26:48.336Z,6.60
2017-08-26T22:29:16.668Z,5.67
2017-08-26T22:31:45.131Z,5.57
2017-08-26T22:34:14.411Z,5.60
2017-08-26T22:36:44.328Z,6.00
2017-08-26T22:39:14.443Z,5.40
2017-08-26T22:41:43.915Z,6.00
2017-08-26T22:44:12.751Z,5.90
2017-08-26T22:46:42.304Z,5.30
2017-08-26T22:49:11.076Z,4.40
2017-08-26T22:51:39.730Z,6.50
2017-08-26T22:54:08.450Z,5.30
2017-08-26T22:56:37.041Z,5.80
2017-08-26T22:59:05.905Z,5.73
2017-08-26T23:01:34.404Z,5.37
2017-08-26T23:04:03.927Z,5.27
2017-08-26T23:06:32.847Z,4.70
2017-08-26T23:09:03.080Z,5.37
2017-08-26T23:11:31.555Z,4.53
2017-08-26T23:14:00.276Z,4.77
2017-08-26T23:16:28.968Z,5.20
2017-08-26T23:18:58.058Z,6.10
2017-08-26T23:21:27.519Z,5.33
2017-08-26T23:23:56.929Z,4.90
2017-08-26T23:26:26.365Z,5.53
2017-08-26T23:28:55.802Z,5.37
2017-08-26T23:31:26.000Z,5.30
2017-08-26T23:33:54.581Z,5.10
2017-08-26T23:36:25.721Z,4.90
2017-08-26T23:38:54.780Z,5.70
2017-08-26T23:41:23.107Z,5.03
2017-08-26T23:43:53.440Z,5.63
2017-08-26T23:46:22.509Z,4.50
2017-08-26T23:48:52.825Z,5.63
2017-08-26T23:51:22.032Z,5.47
2017-08-26T23:53:51.228Z,5.37
2017-08-26T23:56:19.675Z,5.20
2017-08-26T23:58:48.057Z,4.13
